Time;durP1;ratioP1;P1;durP2;ratioP2;P2;SDS_P1;SDS_P2;PMS_P1;PMS_P2;Temp;Humidity;BMP_temperature;BMP_pressure;BME280_temperature;BME280_humidity;BME280_pressure;Samples;Min_cycle;Max_cycle;Signal;HPM_P1;HPM_P2
2021/10/06 00:00:27;;;;;;;10.77;3.90;;;11.40;83.00;;;;;;4995233;28;20034;-74
2021/10/06 00:02:52;;;;;;;8.80;3.33;;;11.40;82.90;;;;;;4984439;28;20043;-72
2021/10/06 00:05:18;;;;;;;10.05;3.72;;;11.40;83.00;;;;;;4986127;28;20054;-73
2021/10/06 00:07:44;;;;;;;12.70;4.07;;;11.50;82.80;;;;;;4987180;28;20379;-73
2021/10/06 00:10:10;;;;;;;10.25;4.20;;;11.50;82.70;;;;;;4985975;28;20172;-74
2021/10/06 00:12:37;;;;;;;13.27;4.68;;;11.50;82.70;;;;;;4985541;28;20038;-74
2021/10/06 00:15:05;;;;;;;10.23;4.22;;;11.60;82.40;;;;;;4984217;28;20049;-73
2021/10/06 00:17:30;;;;;;;11.10;3.65;;;11.60;82.30;;;;;;4984128;28;20030;-77
2021/10/06 00:19:56;;;;;;;9.98;3.40;;;11.60;82.10;;;;;;4984708;28;20042;-72
2021/10/06 00:22:22;;;;;;;10.02;3.40;;;11.50;82.00;;;;;;4985394;28;20073;-73
2021/10/06 00:24:49;;;;;;;14.40;3.30;;;11.50;82.20;;;;;;4988575;28;20487;-72
2021/10/06 00:27:15;;;;;;;8.85;3.38;;;11.50;82.00;;;;;;4988122;28;20070;-73
2021/10/06 00:29:42;;;;;;;10.15;2.78;;;11.50;82.10;;;;;;4982180;28;20027;-73
2021/10/06 00:32:08;;;;;;;8.80;2.55;;;11.50;81.90;;;;;;4987524;28;20034;-73
2021/10/06 00:34:34;;;;;;;9.13;2.92;;;11.40;82.10;;;;;;4986382;28;20034;-73
2021/10/06 00:37:00;;;;;;;9.93;2.50;;;11.40;81.90;;;;;;4990138;28;20473;-77
2021/10/06 00:39:26;;;;;;;8.57;2.55;;;11.40;82.10;;;;;;4980243;28;20042;-74
2021/10/06 00:41:52;;;;;;;9.40;2.65;;;11.40;82.20;;;;;;4990743;28;20474;-72
2021/10/06 00:44:20;;;;;;;11.38;2.67;;;11.40;82.00;;;;;;4986526;28;20490;-72
2021/10/06 00:46:47;;;;;;;9.00;3.13;;;11.40;82.40;;;;;;4987026;28;20168;-75
2021/10/06 00:49:15;;;;;;;10.02;3.08;;;11.40;82.30;;;;;;4985986;28;20038;-73
2021/10/06 00:51:41;;;;;;;12.70;3.03;;;11.40;82.10;;;;;;4988891;28;20626;-71
2021/10/06 00:54:08;;;;;;;8.32;2.60;;;11.40;82.30;;;;;;4985277;28;20146;-72
2021/10/06 00:56:34;;;;;;;10.48;2.42;;;11.30;82.40;;;;;;4988373;28;20023;-74
2021/10/06 00:59:00;;;;;;;10.85;3.05;;;11.20;82.70;;;;;;4989666;28;20034;-72
2021/10/06 01:01:26;;;;;;;12.73;2.97;;;11.20;82.80;;;;;;4986650;28;20053;-73
2021/10/06 01:03:52;;;;;;;11.68;2.70;;;11.30;82.60;;;;;;4989905;28;20097;-73
2021/10/06 01:06:18;;;;;;;7.78;2.50;;;11.30;82.30;;;;;;4989770;28;20038;-75
2021/10/06 01:08:45;;;;;;;9.60;2.58;;;11.40;82.00;;;;;;4989884;28;20040;-72
2021/10/06 01:11:11;;;;;;;6.78;2.00;;;11.40;81.80;;;;;;4990104;28;20115;-73
2021/10/06 01:13:38;;;;;;;8.65;2.40;;;11.40;81.70;;;;;;4987974;28;20046;-72
2021/10/06 01:16:04;;;;;;;10.88;2.08;;;11.40;81.80;;;;;;4988161;28;20375;-73
2021/10/06 01:18:30;;;;;;;9.38;1.95;;;11.40;81.60;;;;;;4986637;28;20061;-75
2021/10/06 01:20:57;;;;;;;11.15;2.35;;;11.50;81.50;;;;;;4989033;28;20605;-72
2021/10/06 01:23:23;;;;;;;6.53;2.25;;;11.50;81.50;;;;;;4984527;28;20394;-73
2021/10/06 01:25:49;;;;;;;8.23;1.98;;;11.50;81.50;;;;;;4984054;28;20109;-72
2021/10/06 01:28:16;;;;;;;7.68;2.30;;;11.50;81.60;;;;;;4982947;28;20568;-72
2021/10/06 01:30:42;;;;;;;10.15;2.80;;;11.50;81.30;;;;;;4983179;28;20041;-72
2021/10/06 01:33:08;;;;;;;11.65;2.75;;;11.50;81.30;;;;;;4989154;28;20030;-73
2021/10/06 01:35:34;;;;;;;8.85;2.60;;;11.50;81.20;;;;;;4977628;28;20121;-77
2021/10/06 01:38:00;;;;;;;8.32;2.92;;;11.50;81.20;;;;;;4990184;28;20042;-73
2021/10/06 01:40:26;;;;;;;10.05;2.85;;;11.50;81.20;;;;;;4979478;28;20038;-72
2021/10/06 01:42:53;;;;;;;12.75;3.35;;;11.50;81.00;;;;;;4982196;28;20109;-73
2021/10/06 01:45:24;;;;;;;12.38;3.60;;;11.60;81.10;;;;;;4983622;28;20129;-71
2021/10/06 01:47:51;;;;;;;10.05;3.55;;;11.50;81.00;;;;;;4997173;28;20034;-72
2021/10/06 01:50:22;;;;;;;10.40;3.13;;;11.60;81.00;;;;;;4988853;28;20493;-72
2021/10/06 01:52:48;;;;;;;12.45;3.58;;;11.50;81.10;;;;;;4989265;28;20596;-72
2021/10/06 01:55:14;;;;;;;12.27;3.50;;;11.50;81.00;;;;;;4981465;28;20047;-72
2021/10/06 01:57:40;;;;;;;11.80;3.70;;;11.50;81.10;;;;;;4987267;28;20077;-72
2021/10/06 02:00:06;;;;;;;10.40;3.50;;;11.40;81.40;;;;;;4984076;28;20038;-73
2021/10/06 02:02:32;;;;;;;11.80;3.40;;;11.40;81.30;;;;;;4995989;28;20026;-72
2021/10/06 02:04:58;;;;;;;10.35;3.60;;;11.50;81.10;;;;;;4983020;28;20069;-72
2021/10/06 02:07:24;;;;;;;10.38;3.50;;;11.50;81.20;;;;;;4979657;28;20039;-74
2021/10/06 02:09:50;;;;;;;11.65;3.47;;;11.50;81.10;;;;;;4985392;28;20414;-72
2021/10/06 02:12:16;;;;;;;9.77;3.47;;;11.50;81.10;;;;;;4984292;28;20101;-72
2021/10/06 02:14:42;;;;;;;8.93;3.10;;;11.50;80.90;;;;;;4974805;28;20059;-75
2021/10/06 02:17:08;;;;;;;11.65;3.47;;;11.50;80.50;;;;;;4988161;28;20455;-72
2021/10/06 02:19:34;;;;;;;10.05;2.45;;;11.60;80.40;;;;;;4984422;28;20030;-72
2021/10/06 02:22:00;;;;;;;8.85;3.55;;;11.60;80.40;;;;;;4989659;28;20069;-72
2021/10/06 02:24:26;;;;;;;14.90;3.55;;;11.50;80.30;;;;;;4984115;28;20038;-79
2021/10/06 02:26:52;;;;;;;9.73;3.03;;;11.60;80.30;;;;;;4983928;28;20059;-72
2021/10/06 02:29:17;;;;;;;11.88;3.25;;;11.60;80.40;;;;;;4983779;28;20817;-72
2021/10/06 02:31:43;;;;;;;9.95;3.03;;;11.60;80.50;;;;;;4986180;28;20038;-72
2021/10/06 02:34:10;;;;;;;11.95;2.88;;;11.60;80.20;;;;;;4988977;28;20035;-72
2021/10/06 02:36:35;;;;;;;9.25;2.63;;;11.60;80.20;;;;;;4987858;28;20076;-73
2021/10/06 02:39:01;;;;;;;12.90;3.08;;;11.60;80.30;;;;;;4983062;28;20042;-73
2021/10/06 02:41:28;;;;;;;7.38;2.38;;;11.60;80.40;;;;;;4988719;28;20030;-72
2021/10/06 02:43:53;;;;;;;10.73;2.60;;;11.60;80.40;;;;;;4982676;28;20057;-73
2021/10/06 02:46:19;;;;;;;10.00;3.53;;;11.60;80.50;;;;;;4986137;28;20038;-72
2021/10/06 02:48:45;;;;;;;8.75;2.83;;;11.60;80.40;;;;;;4981641;28;20052;-72
2021/10/06 02:51:12;;;;;;;10.63;2.47;;;11.60;80.40;;;;;;4983303;28;20034;-73
2021/10/06 02:53:38;;;;;;;13.27;2.50;;;11.60;80.40;;;;;;4985682;28;20031;-74
2021/10/06 02:56:04;;;;;;;10.98;2.85;;;11.60;80.10;;;;;;4983267;28;21134;-74
2021/10/06 02:58:30;;;;;;;9.52;2.25;;;11.60;79.80;;;;;;4981564;28;20043;-72
2021/10/06 03:00:56;;;;;;;9.55;2.08;;;11.60;80.10;;;;;;4981921;28;20035;-73
2021/10/06 03:03:22;;;;;;;11.63;2.15;;;11.60;80.00;;;;;;4984551;28;20050;-71
2021/10/06 03:05:48;;;;;;;7.47;2.28;;;11.60;80.10;;;;;;4984429;28;20027;-73
2021/10/06 03:08:14;;;;;;;10.10;1.83;;;11.60;80.20;;;;;;4994109;28;20390;-72
2021/10/06 03:10:41;;;;;;;8.55;2.20;;;11.60;79.90;;;;;;4983979;28;20035;-73
2021/10/06 03:13:06;;;;;;;8.88;2.22;;;11.60;79.90;;;;;;4987738;28;20116;-73
2021/10/06 03:15:32;;;;;;;8.85;1.73;;;11.60;79.80;;;;;;5009897;28;20379;-73
2021/10/06 03:17:58;;;;;;;11.18;1.83;;;11.60;79.80;;;;;;5004491;28;20052;-73
2021/10/06 03:20:24;;;;;;;7.07;1.60;;;11.70;79.30;;;;;;5008431;28;20034;-73
2021/10/06 03:22:50;;;;;;;8.90;2.22;;;11.70;79.30;;;;;;5006610;28;20037;-72
2021/10/06 03:25:16;;;;;;;12.40;2.17;;;11.70;79.00;;;;;;5005035;28;20045;-73
2021/10/06 03:27:42;;;;;;;11.73;2.58;;;11.80;78.80;;;;;;5017974;28;20046;-75
2021/10/06 03:30:09;;;;;;;7.50;1.90;;;11.80;78.60;;;;;;5009206;28;20481;-73
2021/10/06 03:32:36;;;;;;;11.43;2.58;;;11.80;78.80;;;;;;5002315;28;20076;-72
2021/10/06 03:35:02;;;;;;;10.10;2.20;;;11.80;78.70;;;;;;5004608;28;20510;-73
2021/10/06 03:37:28;;;;;;;14.02;2.88;;;11.80;78.60;;;;;;5013711;28;20393;-72
2021/10/06 03:39:53;;;;;;;9.88;2.67;;;11.80;78.80;;;;;;5011001;28;20038;-72
2021/10/06 03:42:19;;;;;;;12.35;3.28;;;11.80;78.90;;;;;;5013767;28;20550;-73
2021/10/06 03:44:45;;;;;;;10.57;3.20;;;11.80;79.10;;;;;;5008841;28;20129;-73
2021/10/06 03:47:11;;;;;;;11.60;3.30;;;11.70;79.20;;;;;;5009688;28;20045;-74
2021/10/06 03:49:37;;;;;;;9.65;3.20;;;11.80;79.40;;;;;;5011804;28;20045;-72
2021/10/06 03:52:04;;;;;;;13.73;3.10;;;11.70;79.50;;;;;;5007636;28;20072;-73
2021/10/06 03:54:30;;;;;;;11.48;2.65;;;11.80;79.30;;;;;;5013106;28;20037;-72
2021/10/06 03:56:56;;;;;;;9.10;2.60;;;11.80;79.20;;;;;;5008778;28;20046;-73
2021/10/06 03:59:21;;;;;;;13.77;3.38;;;11.80;79.30;;;;;;5003488;28;20116;-73
2021/10/06 04:01:48;;;;;;;10.65;2.40;;;11.80;79.60;;;;;;5006845;28;20036;-73
2021/10/06 04:04:13;;;;;;;7.28;2.38;;;11.90;79.50;;;;;;5011578;28;20058;-74
2021/10/06 04:06:39;;;;;;;11.90;2.17;;;11.90;79.70;;;;;;5006331;28;20046;-75
2021/10/06 04:09:07;;;;;;;7.93;2.95;;;11.80;79.50;;;;;;5008945;28;20026;-72
2021/10/06 04:11:33;;;;;;;8.85;2.72;;;11.90;79.50;;;;;;5010041;28;20389;-73
2021/10/06 04:13:58;;;;;;;12.60;2.70;;;11.90;79.70;;;;;;5006708;28;20766;-73
2021/10/06 04:16:25;;;;;;;10.70;2.00;;;11.90;80.00;;;;;;5007953;28;20113;-72
2021/10/06 04:18:51;;;;;;;8.30;1.75;;;11.90;79.70;;;;;;5008926;28;20034;-72
2021/10/06 04:21:16;;;;;;;9.23;1.90;;;11.90;79.40;;;;;;5006897;28;20030;-73
2021/10/06 04:23:42;;;;;;;9.50;1.95;;;11.90;79.90;;;;;;5009147;28;20062;-72
2021/10/06 04:26:08;;;;;;;9.23;2.00;;;11.90;80.20;;;;;;5006866;28;20072;-79
2021/10/06 04:28:34;;;;;;;7.97;1.92;;;11.90;80.50;;;;;;5003492;28;20046;-74
2021/10/06 04:31:01;;;;;;;8.52;1.98;;;11.80;80.80;;;;;;4996966;28;20034;-74
2021/10/06 04:33:27;;;;;;;11.00;2.10;;;11.80;81.30;;;;;;5004745;28;20567;-73
2021/10/06 04:35:53;;;;;;;11.85;2.22;;;11.70;81.50;;;;;;5015043;28;20034;-73
2021/10/06 04:38:18;;;;;;;9.63;2.10;;;11.70;81.60;;;;;;5005356;28;20062;-72
2021/10/06 04:40:44;;;;;;;8.55;1.90;;;11.70;82.00;;;;;;5002622;28;20084;-73
2021/10/06 04:43:11;;;;;;;10.23;2.13;;;11.70;82.20;;;;;;5008718;28;20046;-72
2021/10/06 04:45:37;;;;;;;8.00;2.10;;;11.70;82.40;;;;;;5006403;28;20052;-72
2021/10/06 04:48:04;;;;;;;9.43;1.92;;;11.60;82.90;;;;;;5002343;28;20061;-73
2021/10/06 04:50:30;;;;;;;5.28;2.13;;;11.60;83.10;;;;;;5006541;28;20623;-73
2021/10/06 04:52:57;;;;;;;9.63;2.60;;;11.50;83.90;;;;;;5005661;28;20117;-72
2021/10/06 04:55:22;;;;;;;7.57;2.50;;;11.50;84.00;;;;;;5006820;28;20041;-73
2021/10/06 04:57:48;;;;;;;8.68;2.20;;;11.50;84.00;;;;;;5005478;28;20406;-73
2021/10/06 05:00:14;;;;;;;8.57;2.35;;;11.50;84.40;;;;;;5001676;28;20120;-77
2021/10/06 05:02:40;;;;;;;9.73;2.28;;;11.40;84.60;;;;;;5002453;28;20033;-72
2021/10/06 05:05:06;;;;;;;8.10;2.38;;;11.30;84.90;;;;;;5005788;28;20478;-76
2021/10/06 05:07:33;;;;;;;9.20;2.65;;;11.40;85.40;;;;;;5005392;28;20686;-76
2021/10/06 05:09:59;;;;;;;8.45;2.20;;;11.30;85.60;;;;;;4998120;28;20058;-72
2021/10/06 05:12:25;;;;;;;9.00;2.60;;;11.20;85.80;;;;;;5002043;28;20033;-73
2021/10/06 05:14:51;;;;;;;10.13;2.28;;;11.30;85.80;;;;;;5003546;28;20473;-76
2021/10/06 05:17:17;;;;;;;10.57;2.28;;;11.30;85.80;;;;;;5005016;28;20037;-77
2021/10/06 05:19:43;;;;;;;10.60;2.20;;;11.20;85.70;;;;;;5004093;28;20027;-75
2021/10/06 05:22:10;;;;;;;8.95;2.47;;;11.30;85.90;;;;;;5005842;28;20036;-73
2021/10/06 05:24:35;;;;;;;10.95;3.22;;;11.30;85.90;;;;;;4996894;28;20058;-73
2021/10/06 05:27:01;;;;;;;6.05;2.08;;;11.20;86.20;;;;;;5006226;28;20089;-73
2021/10/06 05:29:28;;;;;;;13.73;2.30;;;11.10;86.60;;;;;;5001685;28;20045;-73
2021/10/06 05:31:53;;;;;;;8.82;2.03;;;11.10;86.40;;;;;;5005154;28;20038;-79
2021/10/06 05:34:19;;;;;;;10.45;2.60;;;11.10;86.70;;;;;;5006662;28;20033;-77
2021/10/06 05:36:46;;;;;;;10.02;2.30;;;11.10;86.50;;;;;;5008288;28;20076;-73
2021/10/06 05:39:12;;;;;;;8.35;2.50;;;11.10;86.70;;;;;;5000451;28;20489;-70
2021/10/06 05:41:38;;;;;;;9.35;2.50;;;11.10;87.00;;;;;;5001384;28;20034;-69
2021/10/06 05:44:04;;;;;;;12.10;2.38;;;11.10;87.20;;;;;;4998347;28;20042;-69
2021/10/06 05:46:30;;;;;;;11.75;3.05;;;11.10;87.40;;;;;;5008394;28;20048;-70
2021/10/06 05:48:56;;;;;;;8.43;2.40;;;11.10;87.60;;;;;;5006600;28;20397;-71
2021/10/06 05:51:22;;;;;;;10.43;2.38;;;11.10;87.70;;;;;;4999914;28;20042;-70
2021/10/06 05:53:47;;;;;;;10.18;2.22;;;11.00;87.80;;;;;;5007217;28;20388;-69
2021/10/06 05:56:15;;;;;;;9.57;2.65;;;11.00;87.90;;;;;;5005256;28;20045;-70
2021/10/06 05:58:41;;;;;;;11.75;2.70;;;11.00;88.00;;;;;;5004937;28;20045;-70
2021/10/06 06:01:07;;;;;;;10.05;2.53;;;10.90;88.10;;;;;;5002890;28;20034;-74
2021/10/06 06:03:33;;;;;;;10.60;2.80;;;10.90;88.40;;;;;;4989637;28;20042;-69
2021/10/06 06:05:59;;;;;;;13.02;2.83;;;10.90;88.60;;;;;;4983352;28;20035;-70
2021/10/06 06:08:25;;;;;;;11.70;2.88;;;10.90;88.60;;;;;;4983857;28;20030;-70
2021/10/06 06:10:51;;;;;;;9.90;3.25;;;11.00;88.60;;;;;;4987043;28;20433;-69
2021/10/06 06:13:16;;;;;;;8.57;2.88;;;11.00;88.60;;;;;;4982797;28;20038;-69
2021/10/06 06:15:42;;;;;;;10.88;3.38;;;11.00;88.60;;;;;;4985555;28;20034;-69
2021/10/06 06:18:08;;;;;;;9.90;3.15;;;11.10;88.50;;;;;;4977694;28;20041;-72
2021/10/06 06:20:35;;;;;;;9.95;3.20;;;11.10;88.80;;;;;;4977075;28;20039;-69
2021/10/06 06:23:01;;;;;;;9.40;3.00;;;11.00;89.00;;;;;;4981242;28;20391;-69
2021/10/06 06:25:27;;;;;;;12.68;3.20;;;11.00;89.10;;;;;;4976031;28;20153;-69
2021/10/06 06:27:52;;;;;;;9.70;3.80;;;11.00;89.10;;;;;;4984214;28;20125;-69
2021/10/06 06:30:19;;;;;;;12.43;3.67;;;11.00;89.30;;;;;;4984471;28;20466;-70
2021/10/06 06:32:47;;;;;;;13.73;4.13;;;11.00;89.20;;;;;;4987981;28;20093;-69
2021/10/06 06:35:12;;;;;;;11.63;3.25;;;11.00;89.10;;;;;;4977536;28;20046;-72
2021/10/06 06:37:38;;;;;;;10.57;3.33;;;11.00;89.20;;;;;;4977370;28;20050;-69
2021/10/06 06:40:07;;;;;;;15.77;5.43;;;11.00;89.30;;;;;;4978220;28;20038;-71
2021/10/06 06:42:33;;;;;;;12.85;5.30;;;11.00;89.20;;;;;;4983286;28;20042;-69
2021/10/06 06:44:59;;;;;;;16.58;7.13;;;11.00;89.20;;;;;;4982987;28;20060;-69
2021/10/06 06:47:25;;;;;;;14.10;7.40;;;11.10;89.20;;;;;;4983005;28;20133;-68
2021/10/06 06:49:51;;;;;;;16.63;8.98;;;11.10;89.30;;;;;;4978722;28;20030;-69
2021/10/06 06:52:17;;;;;;;16.48;6.97;;;11.10;89.30;;;;;;4980154;28;20077;-73
2021/10/06 06:54:43;;;;;;;12.18;5.55;;;11.10;89.30;;;;;;4982774;28;20066;-73
2021/10/06 06:57:09;;;;;;;11.15;3.75;;;11.20;89.10;;;;;;4986095;28;20034;-74
2021/10/06 06:59:35;;;;;;;14.77;4.25;;;11.10;88.90;;;;;;4980406;28;20038;-68
2021/10/06 07:02:00;;;;;;;13.40;4.30;;;11.10;89.00;;;;;;4978515;28;20061;-69
2021/10/06 07:04:26;;;;;;;9.43;3.55;;;11.10;89.10;;;;;;4986074;28;20046;-74
2021/10/06 07:06:53;;;;;;;11.18;3.80;;;11.10;89.40;;;;;;4986473;28;20126;-72
2021/10/06 07:09:24;;;;;;;12.25;4.18;;;11.10;89.20;;;;;;4983140;28;20035;-72
2021/10/06 07:11:53;;;;;;;15.18;4.10;;;11.10;89.00;;;;;;4986364;28;20061;-68
2021/10/06 07:14:20;;;;;;;14.13;3.97;;;11.10;89.40;;;;;;4982773;28;20050;-68
2021/10/06 07:16:46;;;;;;;10.57;4.28;;;11.00;89.70;;;;;;4981877;28;20026;-68
2021/10/06 07:19:12;;;;;;;11.85;4.40;;;11.00;89.90;;;;;;4983063;28;20042;-73
2021/10/06 07:21:38;;;;;;;11.02;4.45;;;11.00;89.90;;;;;;4979372;28;20042;-72
2021/10/06 07:24:04;;;;;;;14.27;5.50;;;11.00;90.10;;;;;;4984280;28;20072;-68
2021/10/06 07:26:30;;;;;;;10.40;4.13;;;10.90;90.20;;;;;;4983384;28;20046;-71
2021/10/06 07:28:55;;;;;;;14.60;4.40;;;11.00;90.20;;;;;;4984421;28;20395;-72
2021/10/06 07:31:22;;;;;;;13.65;4.53;;;11.00;90.20;;;;;;4983415;28;20097;-68
2021/10/06 07:33:50;;;;;;;11.52;4.13;;;11.00;90.40;;;;;;4986257;28;20110;-69
2021/10/06 07:36:16;;;;;;;16.98;5.63;;;10.90;90.50;;;;;;4976795;28;20047;-71
2021/10/06 07:38:42;;;;;;;15.30;4.50;;;11.00;90.60;;;;;;4981594;28;20037;-69
2021/10/06 07:41:08;;;;;;;15.80;5.22;;;10.90;90.60;;;;;;4983019;28;20430;-70
2021/10/06 07:43:34;;;;;;;13.10;4.93;;;11.00;90.40;;;;;;4987685;28;20089;-69
2021/10/06 07:46:00;;;;;;;11.65;4.38;;;11.00;90.60;;;;;;4985156;28;20038;-72
2021/10/06 07:48:26;;;;;;;10.88;4.70;;;11.10;90.50;;;;;;4986303;28;20038;-69
2021/10/06 07:50:53;;;;;;;11.80;3.63;;;11.10;90.30;;;;;;4981576;28;20047;-69
2021/10/06 07:53:18;;;;;;;10.90;3.55;;;11.10;90.30;;;;;;4978610;28;20042;-69
2021/10/06 07:55:44;;;;;;;12.93;4.30;;;11.10;90.20;;;;;;4979911;28;20124;-69
2021/10/06 07:58:10;;;;;;;11.73;4.25;;;11.10;90.30;;;;;;4980606;28;20039;-71
2021/10/06 08:00:36;;;;;;;12.27;5.03;;;11.20;90.30;;;;;;4982806;28;20436;-69
2021/10/06 08:03:01;;;;;;;11.32;4.55;;;11.20;90.10;;;;;;4983188;28;20038;-69
2021/10/06 08:05:27;;;;;;;12.38;4.60;;;11.10;90.10;;;;;;4985742;28;20038;-74
2021/10/06 08:07:53;;;;;;;13.75;5.30;;;11.20;90.10;;;;;;4987866;28;20045;-70
2021/10/06 08:10:20;;;;;;;12.50;4.30;;;11.10;90.10;;;;;;4986465;28;20035;-69
2021/10/06 08:12:46;;;;;;;13.52;5.25;;;11.10;90.30;;;;;;4985269;28;20045;-69
2021/10/06 08:15:12;;;;;;;12.02;4.88;;;11.10;90.30;;;;;;4984752;28;20042;-69
2021/10/06 08:17:38;;;;;;;11.55;5.32;;;11.10;90.60;;;;;;4986485;28;20462;-68
2021/10/06 08:20:04;;;;;;;13.65;6.25;;;11.10;90.70;;;;;;4985302;28;20049;-69
2021/10/06 08:22:30;;;;;;;13.95;5.65;;;11.10;90.60;;;;;;4983832;28;20026;-70
2021/10/06 08:24:56;;;;;;;17.58;6.40;;;11.10;90.80;;;;;;4984923;28;20476;-73
2021/10/06 08:27:22;;;;;;;13.13;6.28;;;11.10;91.10;;;;;;4985616;28;20050;-69
2021/10/06 08:29:48;;;;;;;14.00;5.95;;;11.10;91.30;;;;;;4989089;28;20062;-69
2021/10/06 08:32:14;;;;;;;15.20;6.25;;;11.10;91.40;;;;;;4979873;28;20034;-68
2021/10/06 08:34:39;;;;;;;14.93;5.95;;;11.10;91.40;;;;;;4986591;28;20543;-68
2021/10/06 08:37:05;;;;;;;13.77;5.43;;;11.20;91.30;;;;;;4984249;28;20038;-73
2021/10/06 08:39:31;;;;;;;16.40;5.90;;;11.20;91.30;;;;;;4987141;28;20377;-68
2021/10/06 08:41:57;;;;;;;13.18;5.63;;;11.20;91.40;;;;;;4985521;28;20047;-76
2021/10/06 08:44:24;;;;;;;13.55;5.10;;;11.20;91.30;;;;;;4984556;28;20053;-68
2021/10/06 08:46:53;;;;;;;11.68;4.32;;;11.30;91.10;;;;;;4986290;28;20077;-70
2021/10/06 08:49:19;;;;;;;10.43;4.28;;;11.20;91.20;;;;;;4981838;28;20045;-69
2021/10/06 08:51:45;;;;;;;12.30;4.43;;;11.20;91.20;;;;;;4985741;28;20358;-70
2021/10/06 08:54:11;;;;;;;17.00;5.00;;;11.20;91.40;;;;;;4984684;28;20378;-69
2021/10/06 08:56:37;;;;;;;12.02;4.18;;;11.20;91.40;;;;;;4987924;28;20107;-71
2021/10/06 08:59:03;;;;;;;10.98;4.90;;;11.30;91.30;;;;;;4984572;28;20058;-75
2021/10/06 09:01:30;;;;;;;15.93;5.40;;;11.30;91.40;;;;;;4980628;28;20479;-70
2021/10/06 09:04:00;;;;;;;14.10;4.63;;;11.40;91.50;;;;;;4982562;28;20050;-72
2021/10/06 09:06:37;;;;;;;12.30;4.85;;;11.50;91.60;;;;;;4986775;28;20603;-69
2021/10/06 09:09:17;;;;;;;10.27;4.10;;;11.50;91.30;;;;;;4986255;28;20486;-68
2021/10/06 09:11:48;;;;;;;10.65;4.32;;;11.60;91.20;;;;;;4974125;28;20068;-71
2021/10/06 09:14:15;;;;;;;10.32;4.32;;;11.60;91.00;;;;;;4978253;28;20046;-71
2021/10/06 09:16:42;;;;;;;11.75;4.85;;;11.60;91.10;;;;;;4984171;28;20046;-69
2021/10/06 09:19:09;;;;;;;9.30;3.78;;;11.70;90.90;;;;;;4986490;28;20049;-69
2021/10/06 09:21:54;;;;;;;11.25;4.45;;;11.80;90.90;;;;;;4978987;28;20062;-69
2021/10/06 09:24:20;;;;;;;12.52;4.88;;;11.80;90.70;;;;;;4978862;28;20137;-70
2021/10/06 09:26:46;;;;;;;12.25;4.88;;;11.80;90.80;;;;;;4985308;28;20026;-70
2021/10/06 09:29:22;;;;;;;12.00;4.82;;;11.70;90.60;;;;;;4981318;28;20487;-69
2021/10/06 09:31:48;;;;;;;13.88;6.43;;;11.70;90.90;;;;;;4972597;28;20034;-70
2021/10/06 09:34:13;;;;;;;12.52;6.03;;;11.70;91.10;;;;;;4977842;28;20684;-69
2021/10/06 09:36:40;;;;;;;14.07;6.03;;;11.70;91.00;;;;;;4983094;28;20133;-72
2021/10/06 09:39:10;;;;;;;13.93;5.68;;;11.80;90.90;;;;;;4986485;28;20093;-71
2021/10/06 09:41:37;;;;;;;10.98;4.97;;;11.70;91.00;;;;;;4983596;28;20042;-70
2021/10/06 09:44:21;;;;;;;12.80;4.95;;;11.50;91.10;;;;;;4983940;28;20053;-71
2021/10/06 09:47:02;;;;;;;16.80;5.88;;;11.60;91.30;;;;;;5006326;28;20049;-73
2021/10/06 09:49:36;;;;;;;12.93;5.10;;;11.50;91.50;;;;;;5006126;28;20038;-70
2021/10/06 09:52:19;;;;;;;11.65;5.57;;;11.60;91.50;;;;;;5004290;28;20030;-77
2021/10/06 09:54:54;;;;;;;12.30;5.63;;;11.60;91.50;;;;;;5006468;28;21290;-71
2021/10/06 09:57:23;;;;;;;12.77;5.55;;;11.60;91.40;;;;;;5010103;28;20029;-74
2021/10/06 09:59:50;;;;;;;10.85;5.28;;;11.60;91.40;;;;;;5005225;28;20042;-71
2021/10/06 10:02:17;;;;;;;15.07;6.20;;;11.50;91.40;;;;;;5001221;28;20452;-69
2021/10/06 10:04:44;;;;;;;15.13;5.57;;;11.60;91.60;;;;;;5007123;28;20042;-72
2021/10/06 10:07:10;;;;;;;17.85;6.05;;;11.60;91.50;;;;;;5010431;28;20477;-69
2021/10/06 10:09:37;;;;;;;15.50;5.90;;;11.60;91.70;;;;;;5004732;28;20034;-71
2021/10/06 10:12:03;;;;;;;15.10;6.22;;;11.50;91.70;;;;;;5003846;28;20061;-69
2021/10/06 10:14:29;;;;;;;16.13;5.57;;;11.60;91.80;;;;;;5001709;28;20397;-69
2021/10/06 10:16:55;;;;;;;14.40;5.80;;;11.60;91.60;;;;;;5000691;28;20088;-69
2021/10/06 10:19:25;;;;;;;20.20;5.97;;;11.60;91.70;;;;;;5000806;28;20034;-69
2021/10/06 10:21:52;;;;;;;17.67;5.95;;;11.80;91.70;;;;;;5009012;28;20022;-69
2021/10/06 10:24:23;;;;;;;23.60;6.85;;;11.90;91.50;;;;;;5007687;28;20080;-70
2021/10/06 10:27:01;;;;;;;13.50;5.07;;;11.90;91.40;;;;;;5010658;28;20107;-69
2021/10/06 10:29:43;;;;;;;15.52;5.18;;;12.00;91.50;;;;;;5003831;28;20137;-69
2021/10/06 10:32:15;;;;;;;18.08;5.30;;;12.10;91.50;;;;;;5007606;28;20045;-68
2021/10/06 10:35:00;;;;;;;9.68;3.60;;;12.10;91.40;;;;;;4998375;28;20034;-69
2021/10/06 10:37:51;;;;;;;11.40;3.63;;;12.30;91.00;;;;;;4998303;28;20550;-73
2021/10/06 10:40:35;;;;;;;11.07;3.50;;;12.50;90.70;;;;;;4995494;28;20371;-69
2021/10/06 10:43:13;;;;;;;12.77;3.17;;;12.60;90.40;;;;;;4995346;28;20034;-70
2021/10/06 10:46:09;;;;;;;12.80;3.35;;;12.70;89.70;;;;;;4998657;28;20054;-71
2021/10/06 10:49:01;;;;;;;9.65;3.05;;;12.70;89.50;;;;;;4995603;28;20112;-70
2021/10/06 10:51:58;;;;;;;8.43;3.53;;;12.60;89.60;;;;;;4998759;28;20034;-69
2021/10/06 10:54:29;;;;;;;;;;;12.60;90.00;;;;;;4999843;28;20863;-70
2021/10/06 10:56:56;;;;;;;11.02;3.60;;;12.60;90.10;;;;;;4997962;28;19921;-68
2021/10/06 10:59:24;;;;;;;8.32;3.58;;;12.60;90.30;;;;;;5002357;28;20049;-71
2021/10/06 11:01:57;;;;;;;9.40;4.20;;;12.50;90.40;;;;;;5000253;28;20081;-68
2021/10/06 11:04:31;;;;;;;9.40;4.82;;;12.40;90.60;;;;;;4996236;28;20505;-68
2021/10/06 11:07:12;;;;;;;11.52;4.22;;;12.60;91.00;;;;;;4994049;28;20102;-69
2021/10/06 11:09:41;;;;;;;6.82;3.53;;;12.70;90.70;;;;;;4999740;28;20124;-72
2021/10/06 11:12:07;;;;;;;12.30;5.07;;;12.70;90.60;;;;;;4997275;28;20038;-73
2021/10/06 11:14:35;;;;;;;12.55;4.07;;;12.70;90.50;;;;;;4995039;28;20067;-68
2021/10/06 11:17:07;;;;;;;13.45;4.50;;;12.60;90.20;;;;;;4997840;28;20465;-70
2021/10/06 11:19:42;;;;;;;10.63;4.10;;;12.50;90.20;;;;;;4998440;28;20727;-72
2021/10/06 11:22:22;;;;;;;13.27;4.82;;;12.50;90.60;;;;;;4997805;28;20945;-68
2021/10/06 11:25:00;;;;;;;12.27;4.60;;;12.60;90.70;;;;;;4996450;28;20057;-69
2021/10/06 11:27:28;;;;;;;10.45;4.10;;;12.60;90.60;;;;;;4995424;28;20053;-68
2021/10/06 11:29:56;;;;;;;12.35;4.07;;;12.60;90.20;;;;;;4995622;28;20050;-68
2021/10/06 11:32:23;;;;;;;7.93;3.38;;;12.50;90.20;;;;;;4995697;28;20056;-70
2021/10/06 11:34:50;;;;;;;10.95;4.47;;;12.40;90.40;;;;;;4996506;28;20241;-70
2021/10/06 11:37:18;;;;;;;11.07;4.68;;;12.50;90.70;;;;;;4996008;28;20045;-69
2021/10/06 11:39:45;;;;;;;11.52;4.45;;;12.50;90.60;;;;;;4997626;28;20115;-72
2021/10/06 11:42:11;;;;;;;6.63;3.70;;;12.50;90.90;;;;;;4995703;28;20121;-69
2021/10/06 11:44:37;;;;;;;9.77;3.95;;;12.60;91.10;;;;;;4995865;28;20164;-69
2021/10/06 11:47:06;;;;;;;10.10;3.67;;;12.70;90.80;;;;;;5003280;28;20037;-69
2021/10/06 11:49:34;;;;;;;7.50;3.47;;;12.80;90.50;;;;;;5001449;28;20041;-69
2021/10/06 11:52:01;;;;;;;8.75;3.80;;;12.80;90.10;;;;;;5003329;28;20034;-69
2021/10/06 11:54:27;;;;;;;11.32;4.28;;;12.80;90.40;;;;;;5001331;28;20042;-73
2021/10/06 11:57:00;;;;;;;12.57;4.47;;;12.90;90.30;;;;;;4999238;28;20075;-71
2021/10/06 11:59:30;;;;;;;11.10;4.70;;;12.90;89.90;;;;;;4986974;28;20259;-72
2021/10/06 12:01:59;;;;;;;14.70;4.57;;;13.00;89.80;;;;;;4987476;28;20070;-72
2021/10/06 12:04:46;;;;;;;8.32;3.55;;;12.90;89.50;;;;;;4988083;28;20073;-71
2021/10/06 12:07:19;;;;;;;7.75;3.70;;;12.70;89.80;;;;;;4988433;28;20435;-74
2021/10/06 12:09:48;;;;;;;10.65;4.60;;;12.70;89.90;;;;;;4990609;28;20037;-69
2021/10/06 12:12:30;;;;;;;9.00;4.40;;;12.60;89.90;;;;;;4987759;28;20101;-72
2021/10/06 12:15:06;;;;;;;13.90;4.85;;;12.60;90.10;;;;;;4989877;28;20525;-71
2021/10/06 12:17:38;;;;;;;13.52;5.07;;;12.60;90.30;;;;;;5002646;28;20029;-71
2021/10/06 12:20:06;;;;;;;11.45;4.10;;;12.60;90.30;;;;;;4998150;28;20117;-69
2021/10/06 12:22:39;;;;;;;12.15;4.85;;;12.60;90.40;;;;;;5001770;28;20034;-70
2021/10/06 12:25:11;;;;;;;10.18;3.55;;;12.60;90.50;;;;;;5000973;28;20053;-68
2021/10/06 12:27:44;;;;;;;8.85;3.40;;;12.60;90.10;;;;;;5001485;28;20407;-69
2021/10/06 12:30:17;;;;;;;11.45;3.35;;;12.50;90.40;;;;;;5003974;28;20022;-68
2021/10/06 12:32:45;;;;;;;10.63;3.40;;;12.50;90.50;;;;;;4998588;28;20038;-73
2021/10/06 12:35:25;;;;;;;9.77;3.33;;;12.50;90.40;;;;;;5008126;28;20124;-68
2021/10/06 12:37:53;;;;;;;10.90;3.50;;;12.50;90.60;;;;;;4998884;28;20057;-69
2021/10/06 12:40:46;;;;;;;14.82;3.60;;;12.60;90.70;;;;;;4996514;28;20227;-69
2021/10/06 12:43:17;;;;;;;12.43;4.25;;;12.60;90.60;;;;;;4996814;28;20393;-69